sensor_id;sensor_type;location;lat;lon;timestamp;P1;durP1;ratioP1;P2;durP2;ratioP2
23596;SDS011;40226;50.874;4.394;2022-09-03T00:00:15;7.55;;;3.97;;
23596;SDS011;40226;50.874;4.394;2022-09-03T00:02:51;8.82;;;3.75;;
23596;SDS011;40226;50.874;4.394;2022-09-03T00:11:01;7.35;;;4.57;;
23596;SDS011;40226;50.874;4.394;2022-09-03T00:13:43;11.68;;;5.25;;
23596;SDS011;40226;50.874;4.394;2022-09-03T00:16:14;8.93;;;3.67;;
23596;SDS011;40226;50.874;4.394;2022-09-03T00:18:49;7.25;;;3.28;;
23596;SDS011;40226;50.874;4.394;2022-09-03T00:21:40;6.18;;;3.65;;
23596;SDS011;40226;50.874;4.394;2022-09-03T00:24:14;8.00;;;3.35;;
23596;SDS011;40226;50.874;4.394;2022-09-03T00:26:43;5.18;;;3.38;;
23596;SDS011;40226;50.874;4.394;2022-09-03T00:29:17;6.30;;;3.00;;
23596;SDS011;40226;50.874;4.394;2022-09-03T00:31:53;5.13;;;3.70;;
23596;SDS011;40226;50.874;4.394;2022-09-03T00:34:23;8.85;;;4.10;;
23596;SDS011;40226;50.874;4.394;2022-09-03T00:36:55;7.25;;;3.40;;
23596;SDS011;40226;50.874;4.394;2022-09-03T00:39:22;5.18;;;3.50;;
23596;SDS011;40226;50.874;4.394;2022-09-03T00:52:55;6.35;;;3.47;;
23596;SDS011;40226;50.874;4.394;2022-09-03T01:13:46;5.88;;;2.97;;
23596;SDS011;40226;50.874;4.394;2022-09-03T01:16:24;6.50;;;3.40;;
23596;SDS011;40226;50.874;4.394;2022-09-03T01:19:00;5.97;;;3.00;;
23596;SDS011;40226;50.874;4.394;2022-09-03T01:27:14;6.88;;;2.88;;
23596;SDS011;40226;50.874;4.394;2022-09-03T01:32:34;5.47;;;3.33;;
23596;SDS011;40226;50.874;4.394;2022-09-03T01:40:29;8.70;;;3.33;;
23596;SDS011;40226;50.874;4.394;2022-09-03T01:45:52;9.45;;;3.60;;
23596;SDS011;40226;50.874;4.394;2022-09-03T01:48:44;3.95;;;3.20;;
23596;SDS011;40226;50.874;4.394;2022-09-03T01:51:19;3.78;;;3.33;;
23596;SDS011;40226;50.874;4.394;2022-09-03T01:54:07;6.15;;;3.45;;
23596;SDS011;40226;50.874;4.394;2022-09-03T01:56:59;7.20;;;3.50;;
23596;SDS011;40226;50.874;4.394;2022-09-03T02:00:09;7.50;;;3.72;;
23596;SDS011;40226;50.874;4.394;2022-09-03T02:02:40;7.30;;;4.10;;
23596;SDS011;40226;50.874;4.394;2022-09-03T02:05:12;8.93;;;3.78;;
23596;SDS011;40226;50.874;4.394;2022-09-03T02:10:26;7.53;;;4.05;;
23596;SDS011;40226;50.874;4.394;2022-09-03T02:13:41;5.13;;;4.03;;
23596;SDS011;40226;50.874;4.394;2022-09-03T02:15:47;9.38;;;4.50;;
23596;SDS011;40226;50.874;4.394;2022-09-03T02:18:15;8.75;;;4.57;;
23596;SDS011;40226;50.874;4.394;2022-09-03T02:23:16;8.95;;;4.38;;
23596;SDS011;40226;50.874;4.394;2022-09-03T02:25:43;5.20;;;4.70;;
23596;SDS011;40226;50.874;4.394;2022-09-03T02:28:18;7.85;;;4.65;;
23596;SDS011;40226;50.874;4.394;2022-09-03T02:30:44;7.75;;;4.97;;
23596;SDS011;40226;50.874;4.394;2022-09-03T02:33:10;9.48;;;5.20;;
23596;SDS011;40226;50.874;4.394;2022-09-03T02:35:36;7.30;;;4.78;;
23596;SDS011;40226;50.874;4.394;2022-09-03T02:38:13;7.32;;;5.10;;
23596;SDS011;40226;50.874;4.394;2022-09-03T02:40:43;7.95;;;4.90;;
23596;SDS011;40226;50.874;4.394;2022-09-03T02:43:17;7.25;;;4.78;;
23596;SDS011;40226;50.874;4.394;2022-09-03T02:45:52;11.00;;;5.47;;
23596;SDS011;40226;50.874;4.394;2022-09-03T02:48:21;9.57;;;5.80;;
23596;SDS011;40226;50.874;4.394;2022-09-03T02:50:48;7.95;;;5.75;;
23596;SDS011;40226;50.874;4.394;2022-09-03T02:53:13;6.82;;;5.97;;
23596;SDS011;40226;50.874;4.394;2022-09-03T02:55:39;11.93;;;7.55;;
23596;SDS011;40226;50.874;4.394;2022-09-03T02:58:05;9.95;;;7.80;;
23596;SDS011;40226;50.874;4.394;2022-09-03T03:00:31;11.18;;;8.20;;
23596;SDS011;40226;50.874;4.394;2022-09-03T03:02:57;12.45;;;7.03;;
23596;SDS011;40226;50.874;4.394;2022-09-03T03:05:29;10.75;;;8.05;;
23596;SDS011;40226;50.874;4.394;2022-09-03T03:08:02;9.93;;;8.07;;
23596;SDS011;40226;50.874;4.394;2022-09-03T03:10:28;11.20;;;8.98;;
23596;SDS011;40226;50.874;4.394;2022-09-03T03:12:53;12.40;;;8.02;;
23596;SDS011;40226;50.874;4.394;2022-09-03T03:15:19;14.98;;;9.20;;
23596;SDS011;40226;50.874;4.394;2022-09-03T03:17:44;12.90;;;8.75;;
23596;SDS011;40226;50.874;4.394;2022-09-03T03:20:10;11.60;;;8.88;;
23596;SDS011;40226;50.874;4.394;2022-09-03T03:22:36;12.80;;;8.25;;
23596;SDS011;40226;50.874;4.394;2022-09-03T03:25:01;10.43;;;8.35;;
23596;SDS011;40226;50.874;4.394;2022-09-03T03:27:27;14.32;;;9.50;;
23596;SDS011;40226;50.874;4.394;2022-09-03T03:29:52;14.07;;;8.57;;
23596;SDS011;40226;50.874;4.394;2022-09-03T03:32:18;10.75;;;8.13;;
23596;SDS011;40226;50.874;4.394;2022-09-03T03:34:44;11.50;;;8.60;;
23596;SDS011;40226;50.874;4.394;2022-09-03T03:37:09;14.23;;;7.85;;
23596;SDS011;40226;50.874;4.394;2022-09-03T03:39:35;12.63;;;7.47;;
23596;SDS011;40226;50.874;4.394;2022-09-03T03:42:01;9.75;;;7.50;;
23596;SDS011;40226;50.874;4.394;2022-09-03T03:44:26;11.13;;;7.70;;
23596;SDS011;40226;50.874;4.394;2022-09-03T03:46:53;10.25;;;8.02;;
23596;SDS011;40226;50.874;4.394;2022-09-03T03:49:19;9.20;;;7.40;;
23596;SDS011;40226;50.874;4.394;2022-09-03T03:51:44;11.85;;;7.32;;
23596;SDS011;40226;50.874;4.394;2022-09-03T03:54:10;10.18;;;6.13;;
23596;SDS011;40226;50.874;4.394;2022-09-03T03:56:35;7.82;;;6.03;;
23596;SDS011;40226;50.874;4.394;2022-09-03T03:59:01;7.82;;;5.28;;
23596;SDS011;40226;50.874;4.394;2022-09-03T04:01:27;7.82;;;5.47;;
23596;SDS011;40226;50.874;4.394;2022-09-03T04:03:54;9.07;;;5.70;;
23596;SDS011;40226;50.874;4.394;2022-09-03T04:06:20;8.70;;;6.07;;
23596;SDS011;40226;50.874;4.394;2022-09-03T04:08:46;15.05;;;6.50;;
23596;SDS011;40226;50.874;4.394;2022-09-03T04:11:15;7.65;;;5.80;;
23596;SDS011;40226;50.874;4.394;2022-09-03T04:13:43;9.23;;;5.43;;
23596;SDS011;40226;50.874;4.394;2022-09-03T04:16:11;11.20;;;5.82;;
23596;SDS011;40226;50.874;4.394;2022-09-03T04:18:45;6.90;;;5.22;;
23596;SDS011;40226;50.874;4.394;2022-09-03T04:21:14;8.43;;;5.15;;
23596;SDS011;40226;50.874;4.394;2022-09-03T04:23:48;6.60;;;5.55;;
23596;SDS011;40226;50.874;4.394;2022-09-03T04:26:16;7.38;;;5.35;;
23596;SDS011;40226;50.874;4.394;2022-09-03T04:28:43;6.97;;;5.90;;
23596;SDS011;40226;50.874;4.394;2022-09-03T04:31:10;8.57;;;6.55;;
23596;SDS011;40226;50.874;4.394;2022-09-03T04:33:38;8.18;;;6.18;;
23596;SDS011;40226;50.874;4.394;2022-09-03T04:38:37;7.00;;;6.28;;
23596;SDS011;40226;50.874;4.394;2022-09-03T04:41:05;9.98;;;6.72;;
23596;SDS011;40226;50.874;4.394;2022-09-03T04:43:32;8.52;;;6.60;;
23596;SDS011;40226;50.874;4.394;2022-09-03T04:45:59;8.88;;;7.30;;
23596;SDS011;40226;50.874;4.394;2022-09-03T04:48:27;9.70;;;7.32;;
23596;SDS011;40226;50.874;4.394;2022-09-03T04:50:53;11.10;;;7.82;;
23596;SDS011;40226;50.874;4.394;2022-09-03T04:53:30;10.00;;;7.65;;
23596;SDS011;40226;50.874;4.394;2022-09-03T04:55:56;10.15;;;7.30;;
23596;SDS011;40226;50.874;4.394;2022-09-03T04:58:22;10.20;;;7.25;;
23596;SDS011;40226;50.874;4.394;2022-09-03T05:00:47;9.10;;;7.57;;
23596;SDS011;40226;50.874;4.394;2022-09-03T05:03:13;9.95;;;7.75;;
23596;SDS011;40226;50.874;4.394;2022-09-03T05:05:39;9.35;;;7.55;;
23596;SDS011;40226;50.874;4.394;2022-09-03T05:08:05;11.77;;;7.82;;
23596;SDS011;40226;50.874;4.394;2022-09-03T05:10:31;8.48;;;6.80;;
23596;SDS011;40226;50.874;4.394;2022-09-03T05:12:59;10.25;;;7.97;;
23596;SDS011;40226;50.874;4.394;2022-09-03T05:15:29;13.38;;;8.10;;
23596;SDS011;40226;50.874;4.394;2022-09-03T05:17:58;10.82;;;8.60;;
23596;SDS011;40226;50.874;4.394;2022-09-03T05:20:26;12.63;;;9.43;;
23596;SDS011;40226;50.874;4.394;2022-09-03T05:22:54;10.50;;;9.40;;
23596;SDS011;40226;50.874;4.394;2022-09-03T05:25:20;12.63;;;9.20;;
23596;SDS011;40226;50.874;4.394;2022-09-03T05:27:47;10.30;;;9.15;;
23596;SDS011;40226;50.874;4.394;2022-09-03T05:30:13;10.55;;;8.70;;
23596;SDS011;40226;50.874;4.394;2022-09-03T05:32:38;10.93;;;9.38;;
23596;SDS011;40226;50.874;4.394;2022-09-03T05:35:05;12.90;;;9.25;;
23596;SDS011;40226;50.874;4.394;2022-09-03T05:37:31;11.32;;;8.75;;
23596;SDS011;40226;50.874;4.394;2022-09-03T05:39:58;11.15;;;9.45;;
23596;SDS011;40226;50.874;4.394;2022-09-03T05:42:24;12.55;;;9.45;;
23596;SDS011;40226;50.874;4.394;2022-09-03T05:44:51;11.45;;;9.07;;
23596;SDS011;40226;50.874;4.394;2022-09-03T05:47:17;12.55;;;9.00;;
23596;SDS011;40226;50.874;4.394;2022-09-03T05:49:42;10.35;;;8.75;;
23596;SDS011;40226;50.874;4.394;2022-09-03T05:52:08;11.05;;;8.80;;
23596;SDS011;40226;50.874;4.394;2022-09-03T05:54:33;23.35;;;20.95;;
23596;SDS011;40226;50.874;4.394;2022-09-03T05:56:59;10.93;;;8.93;;
23596;SDS011;40226;50.874;4.394;2022-09-03T05:59:25;12.13;;;8.70;;
23596;SDS011;40226;50.874;4.394;2022-09-03T06:01:51;10.07;;;8.23;;
23596;SDS011;40226;50.874;4.394;2022-09-03T06:04:17;9.75;;;8.02;;
23596;SDS011;40226;50.874;4.394;2022-09-03T06:06:43;10.73;;;7.63;;
23596;SDS011;40226;50.874;4.394;2022-09-03T06:09:14;10.23;;;8.18;;
23596;SDS011;40226;50.874;4.394;2022-09-03T06:11:42;9.43;;;8.43;;
23596;SDS011;40226;50.874;4.394;2022-09-03T06:14:09;11.00;;;8.38;;
23596;SDS011;40226;50.874;4.394;2022-09-03T06:16:43;8.43;;;6.78;;
23596;SDS011;40226;50.874;4.394;2022-09-03T06:19:12;9.10;;;6.63;;
23596;SDS011;40226;50.874;4.394;2022-09-03T06:21:39;8.30;;;7.07;;
23596;SDS011;40226;50.874;4.394;2022-09-03T06:24:07;11.63;;;7.30;;
23596;SDS011;40226;50.874;4.394;2022-09-03T06:26:36;11.25;;;8.23;;
23596;SDS011;40226;50.874;4.394;2022-09-03T06:29:02;12.88;;;8.27;;
23596;SDS011;40226;50.874;4.394;2022-09-03T06:31:29;10.43;;;7.43;;
23596;SDS011;40226;50.874;4.394;2022-09-03T06:33:54;8.93;;;7.57;;
23596;SDS011;40226;50.874;4.394;2022-09-03T06:36:21;14.23;;;8.90;;
23596;SDS011;40226;50.874;4.394;2022-09-03T06:38:50;9.75;;;7.65;;
23596;SDS011;40226;50.874;4.394;2022-09-03T06:41:18;11.25;;;7.55;;
23596;SDS011;40226;50.874;4.394;2022-09-03T06:43:49;10.82;;;7.40;;
23596;SDS011;40226;50.874;4.394;2022-09-03T06:46:17;8.77;;;7.35;;
23596;SDS011;40226;50.874;4.394;2022-09-03T06:48:45;9.98;;;7.60;;
23596;SDS011;40226;50.874;4.394;2022-09-03T06:51:16;9.55;;;7.20;;
23596;SDS011;40226;50.874;4.394;2022-09-03T06:53:46;10.95;;;7.30;;
23596;SDS011;40226;50.874;4.394;2022-09-03T06:56:14;8.98;;;6.88;;
23596;SDS011;40226;50.874;4.394;2022-09-03T06:58:46;10.23;;;6.90;;
23596;SDS011;40226;50.874;4.394;2022-09-03T07:03:41;9.13;;;7.55;;
23596;SDS011;40226;50.874;4.394;2022-09-03T07:06:09;8.60;;;6.75;;
23596;SDS011;40226;50.874;4.394;2022-09-03T07:08:36;8.52;;;7.25;;
23596;SDS011;40226;50.874;4.394;2022-09-03T07:11:02;8.77;;;7.15;;
23596;SDS011;40226;50.874;4.394;2022-09-03T07:13:33;9.77;;;6.25;;
23596;SDS011;40226;50.874;4.394;2022-09-03T07:16:04;7.28;;;5.90;;
23596;SDS011;40226;50.874;4.394;2022-09-03T07:18:31;9.45;;;6.10;;
23596;SDS011;40226;50.874;4.394;2022-09-03T07:20:58;7.13;;;5.68;;
23596;SDS011;40226;50.874;4.394;2022-09-03T07:23:31;6.05;;;5.03;;
23596;SDS011;40226;50.874;4.394;2022-09-03T07:25:59;7.78;;;4.45;;
23596;SDS011;40226;50.874;4.394;2022-09-03T07:28:27;6.18;;;4.40;;
23596;SDS011;40226;50.874;4.394;2022-09-03T07:30:59;8.43;;;5.15;;
23596;SDS011;40226;50.874;4.394;2022-09-03T07:33:29;6.13;;;4.57;;
23596;SDS011;40226;50.874;4.394;2022-09-03T07:36:00;5.72;;;5.00;;
23596;SDS011;40226;50.874;4.394;2022-09-03T07:38:30;6.95;;;4.30;;
23596;SDS011;40226;50.874;4.394;2022-09-03T07:40:57;6.38;;;4.97;;
23596;SDS011;40226;50.874;4.394;2022-09-03T07:43:24;6.22;;;4.95;;
23596;SDS011;40226;50.874;4.394;2022-09-03T07:45:51;9.43;;;5.57;;
23596;SDS011;40226;50.874;4.394;2022-09-03T07:48:18;7.40;;;4.68;;
23596;SDS011;40226;50.874;4.394;2022-09-03T07:50:44;8.68;;;4.68;;
23596;SDS011;40226;50.874;4.394;2022-09-03T07:53:11;6.90;;;5.32;;
23596;SDS011;40226;50.874;4.394;2022-09-03T07:55:37;7.90;;;4.78;;
23596;SDS011;40226;50.874;4.394;2022-09-03T07:58:03;5.13;;;4.45;;
23596;SDS011;40226;50.874;4.394;2022-09-03T08:00:29;7.88;;;5.22;;
23596;SDS011;40226;50.874;4.394;2022-09-03T08:02:57;8.18;;;5.05;;
23596;SDS011;40226;50.874;4.394;2022-09-03T08:05:30;7.55;;;4.82;;
23596;SDS011;40226;50.874;4.394;2022-09-03T08:07:58;6.55;;;4.45;;
23596;SDS011;40226;50.874;4.394;2022-09-03T08:10:35;6.78;;;4.57;;
23596;SDS011;40226;50.874;4.394;2022-09-03T08:13:02;9.65;;;4.93;;
23596;SDS011;40226;50.874;4.394;2022-09-03T08:15:31;6.25;;;4.82;;
23596;SDS011;40226;50.874;4.394;2022-09-03T08:17:58;10.35;;;4.97;;
23596;SDS011;40226;50.874;4.394;2022-09-03T08:20:24;6.38;;;4.93;;
23596;SDS011;40226;50.874;4.394;2022-09-03T08:22:51;7.22;;;4.90;;
23596;SDS011;40226;50.874;4.394;2022-09-03T08:25:17;8.30;;;5.65;;
23596;SDS011;40226;50.874;4.394;2022-09-03T08:27:43;7.97;;;5.35;;
23596;SDS011;40226;50.874;4.394;2022-09-03T08:30:08;12.23;;;5.22;;
23596;SDS011;40226;50.874;4.394;2022-09-03T08:32:36;8.48;;;5.70;;
23596;SDS011;40226;50.874;4.394;2022-09-03T08:35:04;6.75;;;5.40;;
23596;SDS011;40226;50.874;4.394;2022-09-03T08:37:31;8.52;;;5.53;;
23596;SDS011;40226;50.874;4.394;2022-09-03T08:39:57;9.23;;;5.35;;
23596;SDS011;40226;50.874;4.394;2022-09-03T08:44:54;8.60;;;5.70;;
23596;SDS011;40226;50.874;4.394;2022-09-03T08:47:30;6.97;;;5.68;;
23596;SDS011;40226;50.874;4.394;2022-09-03T08:50:11;9.82;;;5.85;;
23596;SDS011;40226;50.874;4.394;2022-09-03T08:52:51;8.18;;;5.45;;
23596;SDS011;40226;50.874;4.394;2022-09-03T08:55:37;7.22;;;5.70;;
23596;SDS011;40226;50.874;4.394;2022-09-03T09:01:13;8.82;;;5.97;;
23596;SDS011;40226;50.874;4.394;2022-09-03T09:22:49;9.35;;;6.65;;
23596;SDS011;40226;50.874;4.394;2022-09-03T09:25:26;11.95;;;7.13;;
23596;SDS011;40226;50.874;4.394;2022-09-03T09:30:20;10.98;;;6.78;;
23596;SDS011;40226;50.874;4.394;2022-09-03T09:32:45;11.70;;;7.20;;
23596;SDS011;40226;50.874;4.394;2022-09-03T09:35:11;12.43;;;6.93;;
23596;SDS011;40226;50.874;4.394;2022-09-03T09:38:13;10.80;;;6.70;;
23596;SDS011;40226;50.874;4.394;2022-09-03T09:40:33;12.75;;;6.93;;
23596;SDS011;40226;50.874;4.394;2022-09-03T09:43:04;10.85;;;6.90;;
23596;SDS011;40226;50.874;4.394;2022-09-03T09:45:43;12.00;;;6.88;;
23596;SDS011;40226;50.874;4.394;2022-09-03T09:48:24;11.35;;;7.07;;
23596;SDS011;40226;50.874;4.394;2022-09-03T09:51:17;8.40;;;6.47;;
23596;SDS011;40226;50.874;4.394;2022-09-03T09:53:45;13.35;;;7.45;;
23596;SDS011;40226;50.874;4.394;2022-09-03T09:56:24;10.30;;;7.00;;
23596;SDS011;40226;50.874;4.394;2022-09-03T09:59:06;9.35;;;7.10;;
23596;SDS011;40226;50.874;4.394;2022-09-03T10:01:35;9.40;;;7.37;;
23596;SDS011;40226;50.874;4.394;2022-09-03T10:06:55;9.90;;;6.95;;
23596;SDS011;40226;50.874;4.394;2022-09-03T10:09:27;11.45;;;6.78;;
23596;SDS011;40226;50.874;4.394;2022-09-03T10:12:08;9.23;;;7.22;;
23596;SDS011;40226;50.874;4.394;2022-09-03T10:14:54;10.30;;;7.03;;
23596;SDS011;40226;50.874;4.394;2022-09-03T10:20:19;10.05;;;7.30;;
23596;SDS011;40226;50.874;4.394;2022-09-03T10:23:05;11.75;;;7.65;;
23596;SDS011;40226;50.874;4.394;2022-09-03T10:25:46;9.15;;;7.68;;
23596;SDS011;40226;50.874;4.394;2022-09-03T10:28:31;8.02;;;7.07;;
23596;SDS011;40226;50.874;4.394;2022-09-03T10:31:08;13.60;;;7.13;;
23596;SDS011;40226;50.874;4.394;2022-09-03T10:33:47;12.30;;;6.82;;
23596;SDS011;40226;50.874;4.394;2022-09-03T10:36:17;11.18;;;7.22;;
23596;SDS011;40226;50.874;4.394;2022-09-03T10:39:14;8.43;;;7.15;;
23596;SDS011;40226;50.874;4.394;2022-09-03T10:42:31;12.38;;;8.10;;
23596;SDS011;40226;50.874;4.394;2022-09-03T10:48:10;9.15;;;7.07;;
23596;SDS011;40226;50.874;4.394;2022-09-03T10:50:46;9.80;;;7.63;;
23596;SDS011;40226;50.874;4.394;2022-09-03T10:56:00;12.25;;;8.45;;
23596;SDS011;40226;50.874;4.394;2022-09-03T11:07:20;11.13;;;8.90;;
23596;SDS011;40226;50.874;4.394;2022-09-03T11:09:52;8.90;;;7.47;;
23596;SDS011;40226;50.874;4.394;2022-09-03T11:12:28;11.98;;;7.85;;
23596;SDS011;40226;50.874;4.394;2022-09-03T11:14:59;9.93;;;8.20;;
23596;SDS011;40226;50.874;4.394;2022-09-03T11:17:45;12.63;;;8.88;;
23596;SDS011;40226;50.874;4.394;2022-09-03T11:20:21;12.68;;;9.20;;
23596;SDS011;40226;50.874;4.394;2022-09-03T11:22:49;12.38;;;8.75;;
23596;SDS011;40226;50.874;4.394;2022-09-03T11:25:19;11.77;;;8.93;;
23596;SDS011;40226;50.874;4.394;2022-09-03T11:33:08;10.82;;;8.05;;
23596;SDS011;40226;50.874;4.394;2022-09-03T11:38:01;12.85;;;8.38;;
23596;SDS011;40226;50.874;4.394;2022-09-03T11:40:31;12.18;;;8.68;;
23596;SDS011;40226;50.874;4.394;2022-09-03T11:48:43;7.55;;;6.82;;
23596;SDS011;40226;50.874;4.394;2022-09-03T11:56:40;8.88;;;6.40;;
23596;SDS011;40226;50.874;4.394;2022-09-03T12:01:40;11.98;;;7.45;;
23596;SDS011;40226;50.874;4.394;2022-09-03T12:04:09;9.98;;;7.15;;
23596;SDS011;40226;50.874;4.394;2022-09-03T12:15:07;10.48;;;8.02;;
23596;SDS011;40226;50.874;4.394;2022-09-03T12:20:13;12.40;;;7.88;;
23596;SDS011;40226;50.874;4.394;2022-09-03T12:22:39;12.23;;;8.35;;
23596;SDS011;40226;50.874;4.394;2022-09-03T12:25:10;11.73;;;8.88;;
23596;SDS011;40226;50.874;4.394;2022-09-03T12:27:38;9.88;;;8.50;;
23596;SDS011;40226;50.874;4.394;2022-09-03T12:30:13;13.95;;;8.30;;
23596;SDS011;40226;50.874;4.394;2022-09-03T12:32:41;10.13;;;8.02;;
23596;SDS011;40226;50.874;4.394;2022-09-03T12:35:25;10.98;;;8.00;;
23596;SDS011;40226;50.874;4.394;2022-09-03T12:37:52;12.63;;;8.13;;
23596;SDS011;40226;50.874;4.394;2022-09-03T12:40:26;9.75;;;8.27;;
23596;SDS011;40226;50.874;4.394;2022-09-03T12:42:53;11.35;;;8.27;;
23596;SDS011;40226;50.874;4.394;2022-09-03T12:45:23;10.88;;;7.90;;
23596;SDS011;40226;50.874;4.394;2022-09-03T12:47:50;8.77;;;7.88;;
23596;SDS011;40226;50.874;4.394;2022-09-03T12:50:20;10.55;;;7.72;;
23596;SDS011;40226;50.874;4.394;2022-09-03T12:52:49;8.77;;;7.68;;
23596;SDS011;40226;50.874;4.394;2022-09-03T13:00:51;8.73;;;7.10;;
23596;SDS011;40226;50.874;4.394;2022-09-03T13:03:49;9.48;;;6.90;;
23596;SDS011;40226;50.874;4.394;2022-09-03T13:06:25;15.57;;;7.38;;
23596;SDS011;40226;50.874;4.394;2022-09-03T13:09:02;8.18;;;7.18;;
23596;SDS011;40226;50.874;4.394;2022-09-03T13:11:34;9.38;;;6.70;;
23596;SDS011;40226;50.874;4.394;2022-09-03T13:27:30;6.72;;;5.57;;
23596;SDS011;40226;50.874;4.394;2022-09-03T13:37:54;10.63;;;5.90;;
23596;SDS011;40226;50.874;4.394;2022-09-03T13:42:57;7.03;;;5.53;;
23596;SDS011;40226;50.874;4.394;2022-09-03T13:50:57;5.75;;;5.03;;
23596;SDS011;40226;50.874;4.394;2022-09-03T13:53:52;7.80;;;4.97;;
23596;SDS011;40226;50.874;4.394;2022-09-03T14:02:09;6.75;;;4.88;;
23596;SDS011;40226;50.874;4.394;2022-09-03T14:07:25;6.30;;;5.28;;
23596;SDS011;40226;50.874;4.394;2022-09-03T14:10:05;10.88;;;5.80;;
23596;SDS011;40226;50.874;4.394;2022-09-03T14:15:23;6.00;;;4.60;;
23596;SDS011;40226;50.874;4.394;2022-09-03T14:20:48;7.17;;;4.70;;
23596;SDS011;40226;50.874;4.394;2022-09-03T14:23:50;6.25;;;5.47;;
23596;SDS011;40226;50.874;4.394;2022-09-03T14:26:29;6.85;;;4.97;;
23596;SDS011;40226;50.874;4.394;2022-09-03T14:29:14;6.28;;;4.72;;
23596;SDS011;40226;50.874;4.394;2022-09-03T14:34:41;6.22;;;4.80;;
23596;SDS011;40226;50.874;4.394;2022-09-03T14:40:03;5.72;;;4.93;;
23596;SDS011;40226;50.874;4.394;2022-09-03T14:50:33;6.57;;;3.75;;
23596;SDS011;40226;50.874;4.394;2022-09-03T14:53:09;8.93;;;5.13;;
23596;SDS011;40226;50.874;4.394;2022-09-03T14:58:46;7.13;;;3.92;;
23596;SDS011;40226;50.874;4.394;2022-09-03T15:06:24;6.22;;;4.85;;
23596;SDS011;40226;50.874;4.394;2022-09-03T15:09:14;5.88;;;4.68;;
23596;SDS011;40226;50.874;4.394;2022-09-03T15:12:09;10.23;;;5.15;;
23596;SDS011;40226;50.874;4.394;2022-09-03T15:14:55;6.78;;;5.30;;
23596;SDS011;40226;50.874;4.394;2022-09-03T15:23:08;5.50;;;4.13;;
23596;SDS011;40226;50.874;4.394;2022-09-03T15:28:42;4.88;;;3.92;;
23596;SDS011;40226;50.874;4.394;2022-09-03T15:33:51;5.47;;;3.60;;
23596;SDS011;40226;50.874;4.394;2022-09-03T15:36:37;6.13;;;3.60;;
23596;SDS011;40226;50.874;4.394;2022-09-03T15:39:09;3.92;;;3.20;;
23596;SDS011;40226;50.874;4.394;2022-09-03T15:44:50;4.70;;;3.72;;
23596;SDS011;40226;50.874;4.394;2022-09-03T15:50:02;5.22;;;4.53;;
23596;SDS011;40226;50.874;4.394;2022-09-03T15:53:33;8.60;;;5.00;;
23596;SDS011;40226;50.874;4.394;2022-09-03T15:55:49;5.93;;;5.05;;
23596;SDS011;40226;50.874;4.394;2022-09-03T15:58:56;8.55;;;6.63;;
23596;SDS011;40226;50.874;4.394;2022-09-03T16:01:31;7.00;;;5.28;;
23596;SDS011;40226;50.874;4.394;2022-09-03T16:09:44;8.55;;;5.45;;
23596;SDS011;40226;50.874;4.394;2022-09-03T16:15:18;8.05;;;6.53;;
23596;SDS011;40226;50.874;4.394;2022-09-03T16:20:40;8.77;;;5.57;;
23596;SDS011;40226;50.874;4.394;2022-09-03T16:26:19;6.78;;;4.80;;
23596;SDS011;40226;50.874;4.394;2022-09-03T16:29:11;9.20;;;5.38;;
23596;SDS011;40226;50.874;4.394;2022-09-03T16:39:39;7.60;;;4.70;;
23596;SDS011;40226;50.874;4.394;2022-09-03T16:53:01;10.43;;;5.63;;
23596;SDS011;40226;50.874;4.394;2022-09-03T16:55:51;6.07;;;4.35;;
23596;SDS011;40226;50.874;4.394;2022-09-03T16:58:49;6.03;;;4.22;;
23596;SDS011;40226;50.874;4.394;2022-09-03T17:04:34;6.20;;;4.68;;
23596;SDS011;40226;50.874;4.394;2022-09-03T17:12:30;5.88;;;4.30;;
23596;SDS011;40226;50.874;4.394;2022-09-03T17:25:46;8.55;;;5.30;;
23596;SDS011;40226;50.874;4.394;2022-09-03T17:42:39;7.30;;;6.25;;
23596;SDS011;40226;50.874;4.394;2022-09-03T17:45:12;10.38;;;6.00;;
23596;SDS011;40226;50.874;4.394;2022-09-03T17:48:00;6.63;;;5.60;;
23596;SDS011;40226;50.874;4.394;2022-09-03T17:50:59;6.60;;;5.35;;
23596;SDS011;40226;50.874;4.394;2022-09-03T17:53:37;8.75;;;5.90;;
23596;SDS011;40226;50.874;4.394;2022-09-03T17:56:17;10.93;;;5.18;;
23596;SDS011;40226;50.874;4.394;2022-09-03T17:59:10;7.63;;;6.03;;
23596;SDS011;40226;50.874;4.394;2022-09-03T18:01:45;12.73;;;5.72;;
23596;SDS011;40226;50.874;4.394;2022-09-03T18:15:28;7.18;;;6.10;;
23596;SDS011;40226;50.874;4.394;2022-09-03T18:18:04;8.45;;;5.63;;
23596;SDS011;40226;50.874;4.394;2022-09-03T18:21:09;8.20;;;5.63;;
23596;SDS011;40226;50.874;4.394;2022-09-03T18:26:43;9.95;;;5.28;;
23596;SDS011;40226;50.874;4.394;2022-09-03T18:29:36;7.90;;;5.68;;
23596;SDS011;40226;50.874;4.394;2022-09-03T18:32:28;10.13;;;6.80;;
23596;SDS011;40226;50.874;4.394;2022-09-03T18:35:12;12.70;;;6.80;;
23596;SDS011;40226;50.874;4.394;2022-09-03T18:37:58;9.45;;;6.63;;
23596;SDS011;40226;50.874;4.394;2022-09-03T18:40:51;8.43;;;6.30;;
23596;SDS011;40226;50.874;4.394;2022-09-03T18:49:54;8.57;;;5.63;;
23596;SDS011;40226;50.874;4.394;2022-09-03T18:58:52;5.07;;;4.00;;
23596;SDS011;40226;50.874;4.394;2022-09-03T19:01:40;6.13;;;4.20;;
23596;SDS011;40226;50.874;4.394;2022-09-03T19:07:41;5.50;;;3.25;;
23596;SDS011;40226;50.874;4.394;2022-09-03T19:10:33;3.92;;;3.30;;
23596;SDS011;40226;50.874;4.394;2022-09-03T19:13:32;6.25;;;3.17;;
23596;SDS011;40226;50.874;4.394;2022-09-03T19:16:24;3.85;;;3.00;;
23596;SDS011;40226;50.874;4.394;2022-09-03T19:22:27;3.97;;;3.58;;
23596;SDS011;40226;50.874;4.394;2022-09-03T19:25:18;6.20;;;3.33;;
23596;SDS011;40226;50.874;4.394;2022-09-03T19:31:03;6.63;;;3.70;;
23596;SDS011;40226;50.874;4.394;2022-09-03T19:34:31;6.88;;;4.40;;
23596;SDS011;40226;50.874;4.394;2022-09-03T19:37:26;5.43;;;4.43;;
23596;SDS011;40226;50.874;4.394;2022-09-03T19:40:43;5.25;;;4.20;;
23596;SDS011;40226;50.874;4.394;2022-09-03T19:46:44;8.60;;;4.80;;
23596;SDS011;40226;50.874;4.394;2022-09-03T19:49:54;8.27;;;5.22;;
23596;SDS011;40226;50.874;4.394;2022-09-03T19:52:54;6.38;;;5.20;;
23596;SDS011;40226;50.874;4.394;2022-09-03T19:55:45;6.45;;;5.22;;
23596;SDS011;40226;50.874;4.394;2022-09-03T19:58:32;7.03;;;5.38;;
23596;SDS011;40226;50.874;4.394;2022-09-03T20:01:19;7.65;;;5.97;;
23596;SDS011;40226;50.874;4.394;2022-09-03T20:04:11;7.40;;;6.10;;
23596;SDS011;40226;50.874;4.394;2022-09-03T20:06:58;9.73;;;6.32;;
23596;SDS011;40226;50.874;4.394;2022-09-03T20:09:45;10.85;;;7.03;;
23596;SDS011;40226;50.874;4.394;2022-09-03T20:12:35;10.55;;;7.68;;
23596;SDS011;40226;50.874;4.394;2022-09-03T20:15:06;10.35;;;7.70;;
23596;SDS011;40226;50.874;4.394;2022-09-03T20:23:11;10.65;;;7.70;;
23596;SDS011;40226;50.874;4.394;2022-09-03T20:26:14;13.15;;;8.63;;
23596;SDS011;40226;50.874;4.394;2022-09-03T20:28:55;13.40;;;9.07;;
23596;SDS011;40226;50.874;4.394;2022-09-03T20:31:42;12.82;;;8.48;;
23596;SDS011;40226;50.874;4.394;2022-09-03T20:50:30;11.90;;;8.23;;
23596;SDS011;40226;50.874;4.394;2022-09-03T20:53:28;9.18;;;6.95;;
23596;SDS011;40226;50.874;4.394;2022-09-03T21:02:36;9.25;;;7.20;;
23596;SDS011;40226;50.874;4.394;2022-09-03T21:08:16;9.65;;;7.68;;
23596;SDS011;40226;50.874;4.394;2022-09-03T21:14:27;10.25;;;7.03;;
23596;SDS011;40226;50.874;4.394;2022-09-03T21:19:39;10.70;;;6.80;;
23596;SDS011;40226;50.874;4.394;2022-09-03T21:22:11;12.02;;;7.15;;
23596;SDS011;40226;50.874;4.394;2022-09-03T21:24:57;14.60;;;10.45;;
23596;SDS011;40226;50.874;4.394;2022-09-03T21:27:50;9.32;;;6.47;;
23596;SDS011;40226;50.874;4.394;2022-09-03T21:30:20;8.25;;;6.47;;
23596;SDS011;40226;50.874;4.394;2022-09-03T21:38:02;9.23;;;6.22;;
23596;SDS011;40226;50.874;4.394;2022-09-03T21:40:45;6.88;;;5.70;;
23596;SDS011;40226;50.874;4.394;2022-09-03T21:43:30;9.73;;;6.18;;